Time;durP1;ratioP1;P1;durP2;ratioP2;P2;SDS_P1;SDS_P2;PMS_P1;PMS_P2;Temp;Humidity;BMP_temperature;BMP_pressure;BME280_temperature;BME280_humidity;BME280_pressure;Samples;Min_cycle;Max_cycle;Signal;HPM_P1;HPM_P2
2022/04/25 00:03:38;;;;;;;9.25;4.63;;;;;;;8.41;100.00;100962.47;10127800;28;20077;-64
2022/04/25 00:08:34;;;;;;;9.45;4.10;;;;;;;8.54;100.00;100966.38;10145120;28;20505;-64
2022/04/25 00:13:32;;;;;;;11.38;4.32;;;;;;;8.46;100.00;100972.50;10134531;28;20066;-64
2022/04/25 00:18:28;;;;;;;8.45;4.47;;;;;;;8.36;100.00;100969.91;10136717;28;20133;-64
2022/04/25 00:23:25;;;;;;;9.63;4.38;;;;;;;8.28;100.00;100967.84;10119875;28;20080;-64
2022/04/25 00:28:21;;;;;;;9.70;4.40;;;;;;;8.43;100.00;100976.63;10124654;28;20079;-64
2022/04/25 00:33:19;;;;;;;9.43;4.18;;;;;;;8.44;100.00;100977.41;10118574;28;20220;-64
2022/04/25 00:38:15;;;;;;;11.70;4.45;;;;;;;8.27;100.00;100974.41;10155324;28;20038;-64
2022/04/25 00:43:12;;;;;;;10.40;4.28;;;;;;;8.29;100.00;100974.91;10142886;28;20054;-64
2022/04/25 00:48:08;;;;;;;8.60;3.70;;;;;;;8.18;100.00;100985.94;10155894;28;20066;-64
2022/04/25 00:53:06;;;;;;;10.68;3.88;;;;;;;8.29;100.00;100980.38;10133665;28;20082;-64
2022/04/25 00:58:03;;;;;;;9.07;3.72;;;;;;;8.19;100.00;100970.41;10155189;28;20135;-64
2022/04/25 01:08:07;;;;;;;8.38;3.55;;;;;;;8.05;100.00;100970.34;10727069;23;20077;-65
2022/04/25 01:13:03;;;;;;;12.32;3.58;;;;;;;8.14;100.00;100968.56;10194074;28;20080;-64
2022/04/25 01:18:00;;;;;;;9.13;3.65;;;;;;;8.22;100.00;100978.81;10153801;28;20077;-66
2022/04/25 01:28:20;;;;;;;8.82;3.17;;;;;;;8.05;100.00;100975.78;10153885;28;20039;-66
2022/04/25 01:33:17;;;;;;;10.95;3.45;;;;;;;8.18;100.00;100980.50;10155948;28;20186;-66
2022/04/25 01:38:13;;;;;;;7.82;2.95;;;;;;;8.14;100.00;100979.47;10193648;28;20049;-64
2022/04/25 01:43:10;;;;;;;14.32;3.75;;;;;;;8.16;100.00;100981.91;10184203;28;20054;-67
2022/04/25 01:48:07;;;;;;;9.35;3.03;;;;;;;8.05;100.00;100981.22;10193590;28;20074;-66
2022/04/25 01:53:03;;;;;;;9.25;3.20;;;;;;;7.94;100.00;100990.69;10183362;28;20089;-66
2022/04/25 01:57:59;;;;;;;8.38;3.33;;;;;;;7.90;100.00;100998.59;10193155;28;20225;-66
2022/04/25 02:02:56;;;;;;;12.40;3.33;;;;;;;7.84;100.00;100991.59;10165628;28;20050;-66
2022/04/25 02:07:53;;;;;;;7.25;2.65;;;;;;;7.76;100.00;100993.06;10192057;28;20054;-67
2022/04/25 02:12:49;;;;;;;11.80;3.10;;;;;;;7.93;100.00;101005.38;10156602;28;20485;-66
2022/04/25 02:17:46;;;;;;;8.75;2.80;;;;;;;7.73;100.00;101012.72;10180987;28;20105;-66
2022/04/25 02:22:43;;;;;;;7.03;2.70;;;;;;;7.93;100.00;101016.25;10153737;28;20113;-66
2022/04/25 02:27:39;;;;;;;8.52;3.63;;;;;;;7.95;100.00;101016.78;10168044;28;20046;-66
2022/04/25 02:32:36;;;;;;;8.15;3.08;;;;;;;7.83;100.00;101016.41;10153135;28;20100;-66
2022/04/25 02:37:32;;;;;;;9.07;3.15;;;;;;;7.81;100.00;101013.97;10195333;28;20080;-66
2022/04/25 02:42:29;;;;;;;13.27;3.50;;;;;;;7.64;100.00;101014.47;10189949;28;20455;-66
2022/04/25 02:47:25;;;;;;;10.50;3.13;;;;;;;7.74;100.00;101014.31;10194735;28;20121;-66
2022/04/25 02:52:22;;;;;;;8.07;2.88;;;;;;;7.77;100.00;101019.19;10177981;28;20078;-66
2022/04/25 02:57:19;;;;;;;8.27;2.90;;;;;;;7.55;100.00;101010.75;10194376;28;20510;-66
2022/04/25 03:02:16;;;;;;;10.73;2.65;;;;;;;7.61;100.00;101004.13;10166653;28;20089;-66
2022/04/25 03:07:12;;;;;;;7.13;3.03;;;;;;;7.40;100.00;101009.00;10182560;28;20487;-66
2022/04/25 03:12:09;;;;;;;7.70;2.83;;;;;;;7.53;100.00;101008.31;10159737;28;20046;-66
2022/04/25 03:17:05;;;;;;;8.43;2.92;;;;;;;7.55;100.00;101002.59;10159822;28;20089;-66
2022/04/25 03:22:02;;;;;;;5.60;2.67;;;;;;;7.43;100.00;100996.75;10159304;28;20050;-66
2022/04/25 03:27:04;;;;;;;9.25;2.95;;;;;;;7.19;100.00;100997.53;10168974;28;20043;-66
2022/04/25 03:32:00;;;;;;;10.02;3.50;;;;;;;7.35;100.00;100999.00;10158613;28;20069;-66
2022/04/25 03:36:57;;;;;;;8.52;2.83;;;;;;;7.26;100.00;101003.44;10164901;28;20085;-66
2022/04/25 03:41:53;;;;;;;9.63;3.83;;;;;;;7.38;100.00;101001.16;10159135;28;20073;-66
2022/04/25 03:46:50;;;;;;;8.05;2.95;;;;;;;7.48;100.00;101000.22;10193913;28;20408;-66
2022/04/25 03:51:46;;;;;;;6.65;2.53;;;;;;;7.41;100.00;101009.84;10195265;28;20069;-66
2022/04/25 04:01:57;;;;;;;7.65;2.90;;;;;;;7.16;100.00;101020.69;10187573;28;20431;-66
2022/04/25 04:06:54;;;;;;;9.38;3.00;;;;;;;7.09;100.00;101017.50;10188199;28;20522;-66
2022/04/25 04:11:52;;;;;;;7.18;2.92;;;;;;;7.20;100.00;101023.66;10171069;28;20129;-66
2022/04/25 04:16:48;;;;;;;9.40;2.80;;;;;;;7.20;100.00;101031.81;10182016;28;20570;-66
2022/04/25 04:21:45;;;;;;;8.30;3.35;;;;;;;7.24;100.00;101021.97;10157269;28;20046;-66
2022/04/25 04:26:42;;;;;;;9.35;2.70;;;;;;;7.20;100.00;101017.41;10179730;28;20066;-65
2022/04/25 04:31:39;;;;;;;8.05;2.90;;;;;;;7.01;100.00;101030.88;10156461;28;20042;-66
2022/04/25 04:36:35;;;;;;;7.43;3.05;;;;;;;7.11;100.00;101028.09;10175576;28;20074;-66
2022/04/25 04:41:32;;;;;;;9.23;4.13;;;;;;;6.95;100.00;101030.94;10156608;28;20073;-65
2022/04/25 04:46:28;;;;;;;10.73;3.17;;;;;;;6.97;100.00;101033.38;10161230;28;20408;-66
2022/04/25 04:51:25;;;;;;;12.18;2.80;;;;;;;6.86;100.00;101038.09;10156043;28;20070;-66
2022/04/25 04:56:21;;;;;;;6.97;2.65;;;;;;;6.87;100.00;101047.03;10185133;28;20076;-66
2022/04/25 05:01:18;;;;;;;9.98;3.28;;;;;;;6.80;100.00;101050.13;10195776;28;20061;-65
2022/04/25 05:06:18;;;;;;;7.90;2.58;;;;;;;6.69;100.00;101049.38;10181829;28;20050;-66
2022/04/25 05:11:15;;;;;;;10.43;2.78;;;;;;;6.81;100.00;101057.16;10186666;28;20042;-66
2022/04/25 05:16:11;;;;;;;8.70;2.28;;;;;;;6.71;100.00;101068.13;10179714;28;20132;-66
2022/04/25 05:21:08;;;;;;;9.88;3.47;;;;;;;6.77;100.00;101066.97;10177811;28;20043;-66
2022/04/25 05:26:05;;;;;;;9.45;2.42;;;;;;;6.69;100.00;101064.88;10178769;28;20419;-65
2022/04/25 05:31:01;;;;;;;7.40;2.10;;;;;;;6.73;100.00;101071.38;10160964;28;20508;-66
2022/04/25 05:35:58;;;;;;;6.00;2.38;;;;;;;6.82;100.00;101074.28;10177020;28;20046;-66
2022/04/25 05:40:54;;;;;;;8.60;3.53;;;;;;;6.88;100.00;101073.97;10172561;28;20050;-66
2022/04/25 05:45:51;;;;;;;13.30;2.40;;;;;;;6.71;100.00;101087.16;10171477;28;20113;-66
2022/04/25 05:56:03;;;;;;;3.35;1.08;;;;;;;6.94;100.00;101089.13;10168466;28;20423;-66
2022/04/25 06:01:00;;;;;;;8.30;3.22;;;;;;;7.00;100.00;101102.69;10153314;28;20109;-66
2022/04/25 06:05:56;;;;;;;6.28;2.25;;;;;;;7.08;100.00;101115.69;10177818;28;20137;-66
2022/04/25 06:10:54;;;;;;;5.25;2.13;;;;;;;7.15;100.00;101110.72;10158071;28;20393;-66
2022/04/25 06:15:51;;;;;;;7.32;1.70;;;;;;;7.23;100.00;101112.81;10164933;28;20072;-66
2022/04/25 06:20:48;;;;;;;5.28;1.77;;;;;;;7.32;100.00;101116.53;10161261;28;20185;-65
2022/04/25 06:25:44;;;;;;;6.30;2.25;;;;;;;7.36;100.00;101122.25;10164382;28;20547;-66
2022/04/25 06:30:41;;;;;;;7.70;2.30;;;;;;;7.38;100.00;101111.88;10161372;28;20042;-65
2022/04/25 06:35:37;;;;;;;11.18;2.15;;;;;;;7.40;100.00;101122.47;10180207;28;20053;-65
2022/04/25 06:40:33;;;;;;;5.95;2.13;;;;;;;7.60;100.00;101122.25;10200249;28;20062;-65
2022/04/25 06:45:30;;;;;;;4.75;1.70;;;;;;;7.68;100.00;101127.09;10197100;28;20671;-66
2022/04/25 06:50:27;;;;;;;4.70;1.90;;;;;;;7.73;100.00;101135.19;10199497;28;20048;-66
2022/04/25 06:55:23;;;;;;;5.68;2.10;;;;;;;7.77;100.00;101125.38;10191251;28;20168;-66
2022/04/25 07:00:22;;;;;;;8.10;2.42;;;;;;;7.95;100.00;101122.97;10199515;28;20567;-66
2022/04/25 07:05:34;;;;;;;7.63;2.30;;;;;;;8.03;100.00;101127.81;10179060;28;20100;-65
2022/04/25 07:10:30;;;;;;;4.45;1.98;;;;;;;8.18;100.00;101127.59;10185218;28;20053;-66
2022/04/25 07:15:27;;;;;;;5.28;1.80;;;;;;;8.35;100.00;101131.75;10177801;28;20108;-66
2022/04/25 07:20:24;;;;;;;4.78;1.73;;;;;;;8.47;100.00;101134.06;10175386;28;20114;-66
2022/04/25 07:30:36;;;;;;;6.18;2.08;;;;;;;8.75;100.00;101135.03;10170540;28;20062;-66
2022/04/25 07:35:36;;;;;;;7.28;2.92;;;;;;;8.90;100.00;101153.91;10175683;28;20124;-66
2022/04/25 07:40:33;;;;;;;6.68;1.75;;;;;;;9.04;100.00;101151.25;10157785;28;20066;-66
2022/04/25 07:45:29;;;;;;;5.07;1.67;;;;;;;9.13;100.00;101151.38;10157610;28;20504;-66
2022/04/25 07:50:26;;;;;;;7.60;2.35;;;;;;;9.29;100.00;101150.03;10157640;28;20050;-66
2022/04/25 07:55:22;;;;;;;6.88;2.33;;;;;;;9.38;100.00;101150.97;10176309;28;20132;-66
2022/04/25 08:00:19;;;;;;;6.38;2.25;;;;;;;9.56;100.00;101153.91;10197457;28;20130;-66
2022/04/25 08:05:15;;;;;;;6.25;1.92;;;;;;;9.66;100.00;101153.75;10185365;28;20155;-66
2022/04/25 08:10:12;;;;;;;7.55;2.03;;;;;;;9.81;100.00;101158.91;10197444;28;20496;-66
2022/04/25 08:20:23;;;;;;;8.27;2.50;;;;;;;10.14;100.00;101169.75;10192335;28;20046;-66
2022/04/25 08:25:20;;;;;;;8.10;2.28;;;;;;;10.26;100.00;101166.53;10174679;28;20112;-66
2022/04/25 08:30:17;;;;;;;4.40;1.70;;;;;;;10.50;100.00;101171.81;10179681;28;20078;-66
2022/04/25 08:35:14;;;;;;;10.10;2.47;;;;;;;10.65;100.00;101163.28;10173545;28;20112;-66
2022/04/25 08:40:11;;;;;;;10.02;2.70;;;;;;;10.83;100.00;101179.84;10172728;28;20046;-66
2022/04/25 08:45:08;;;;;;;4.70;2.00;;;;;;;11.00;100.00;101185.47;10172371;28;20136;-66
2022/04/25 08:50:05;;;;;;;8.07;2.75;;;;;;;11.13;100.00;101187.31;10163279;28;20047;-65
2022/04/25 08:55:02;;;;;;;7.68;2.40;;;;;;;11.28;100.00;101186.16;10168288;28;20941;-66
2022/04/25 09:00:01;;;;;;;7.43;3.00;;;;;;;11.33;100.00;101188.78;10155862;28;20054;-66
2022/04/25 09:04:57;;;;;;;6.82;2.22;;;;;;;11.63;100.00;101191.03;10169551;28;20104;-66
2022/04/25 09:09:54;;;;;;;7.05;2.40;;;;;;;11.61;100.00;101188.63;10194599;28;20632;-66
2022/04/25 09:14:50;;;;;;;8.13;2.35;;;;;;;11.82;100.00;101188.91;10178685;28;20046;-66
2022/04/25 09:20:08;;;;;;;6.75;2.67;;;;;;;11.94;100.00;101197.38;10183680;28;20062;-66
2022/04/25 09:25:15;;;;;;;7.18;2.83;;;;;;;12.12;100.00;101191.97;10170400;28;20061;-65
2022/04/25 09:30:31;;;;;;;5.03;2.35;;;;;;;12.43;100.00;101192.72;10168850;28;20053;-66
2022/04/25 09:35:40;;;;;;;8.85;2.40;;;;;;;12.58;100.00;101193.41;10173071;28;20088;-66
2022/04/25 09:40:38;;;;;;;6.63;2.00;;;;;;;12.82;100.00;101204.72;10161875;28;20046;-66
2022/04/25 09:45:37;;;;;;;4.80;1.98;;;;;;;13.12;92.53;101193.94;10170336;28;20043;-66
2022/04/25 09:50:33;;;;;;;7.57;2.17;;;;;;;13.47;94.05;101196.69;10153837;28;20700;-66
2022/04/25 09:55:43;;;;;;;4.40;1.92;;;;;;;14.04;90.37;101204.63;10156747;28;20050;-66
2022/04/25 10:00:39;;;;;;;5.00;1.70;;;;;;;15.26;87.56;101206.63;10154178;28;20580;-67
2022/04/25 10:05:51;;;;;;;3.90;1.80;;;;;;;16.50;75.48;101202.97;10173852;28;20466;-65
2022/04/25 10:10:53;;;;;;;3.88;1.60;;;;;;;17.47;65.33;101203.06;10193173;28;20092;-66
2022/04/25 10:15:50;;;;;;;7.00;1.90;;;;;;;18.60;57.60;101203.56;10192899;28;20056;-66
2022/04/25 10:20:47;;;;;;;6.57;1.88;;;;;;;19.55;63.23;101219.84;10183833;28;20137;-67
2022/04/25 10:25:52;;;;;;;5.30;1.92;;;;;;;19.76;47.75;101210.34;10174997;28;20503;-66
2022/04/25 10:30:50;;;;;;;4.18;1.40;;;;;;;20.69;44.00;101209.09;10181284;28;20081;-66
2022/04/25 10:35:51;;;;;;;3.08;1.13;;;;;;;21.46;45.21;101209.69;10174279;28;20236;-66
2022/04/25 10:46:03;;;;;;;8.20;2.55;;;;;;;21.47;41.90;101214.09;10177039;28;20050;-66
2022/04/25 10:51:12;;;;;;;4.43;1.40;;;;;;;21.59;40.34;101216.59;10153638;28;20455;-66
2022/04/25 10:56:09;;;;;;;3.17;1.50;;;;;;;22.54;41.55;101207.91;10169516;28;20161;-66
2022/04/25 11:01:05;;;;;;;3.70;1.63;;;;;;;22.47;40.09;101209.44;10160491;28;20046;-66
2022/04/25 11:06:06;;;;;;;5.30;1.60;;;;;;;22.98;40.90;101215.31;10182586;28;20104;-66
2022/04/25 11:11:18;;;;;;;5.57;1.75;;;;;;;22.60;39.25;101212.69;10198208;28;20054;-66
2022/04/25 11:16:16;;;;;;;3.30;1.70;;;;;;;22.01;38.82;101223.78;10193914;28;20053;-66
2022/04/25 11:21:16;;;;;;;3.80;1.77;;;;;;;20.70;38.38;101221.00;10199027;28;20140;-66
2022/04/25 11:26:18;;;;;;;4.03;1.95;;;;;;;21.06;41.63;101227.88;10188757;28;20066;-66
2022/04/25 11:31:15;;;;;;;3.72;1.50;;;;;;;21.77;41.75;101229.88;10192723;28;20042;-66
2022/04/25 11:36:13;;;;;;;5.63;1.73;;;;;;;22.26;40.72;101228.78;10183449;28;20054;-66
2022/04/25 11:41:09;;;;;;;3.10;1.50;;;;;;;22.81;40.23;101237.16;10182510;28;20551;-66
2022/04/25 11:46:06;;;;;;;4.72;1.95;;;;;;;22.28;37.31;101232.00;10182037;28;20530;-66
2022/04/25 11:51:03;;;;;;;4.80;1.60;;;;;;;22.70;41.25;101236.28;10175493;28;20054;-67
2022/04/25 11:56:13;;;;;;;4.32;1.77;;;;;;;21.57;41.24;101235.66;10181218;28;20077;-66
2022/04/25 12:01:10;;;;;;;6.00;1.70;;;;;;;21.64;37.97;101238.50;10158542;28;20129;-66
2022/04/25 12:06:11;;;;;;;5.47;1.90;;;;;;;21.66;41.60;101231.78;10175730;28;20074;-67
2022/04/25 12:16:28;;;;;;;4.13;1.90;;;;;;;21.43;42.68;101241.06;10167506;28;20043;-66
2022/04/25 12:21:25;;;;;;;3.60;1.58;;;;;;;21.88;39.69;101243.94;10156843;28;20145;-67
2022/04/25 12:26:29;;;;;;;3.70;1.33;;;;;;;22.86;40.75;101242.34;10166154;28;20046;-66
2022/04/25 12:31:36;;;;;;;4.25;1.88;;;;;;;23.10;38.61;101246.47;10156371;28;20073;-66
2022/04/25 12:36:34;;;;;;;4.82;1.60;;;;;;;22.71;39.56;101239.84;10160721;28;20046;-66
2022/04/25 12:41:34;;;;;;;4.03;1.60;;;;;;;21.71;39.44;101250.91;10155049;28;20133;-66
2022/04/25 12:46:48;;;;;;;4.43;2.05;;;;;;;20.76;39.61;101253.66;10184173;28;20104;-65
2022/04/25 12:51:54;;;;;;;6.22;1.92;;;;;;;20.24;43.56;101257.97;10181640;28;20074;-67
2022/04/25 12:56:55;;;;;;;5.43;1.92;;;;;;;19.80;42.87;101249.28;10185324;28;20050;-66
2022/04/25 13:02:09;;;;;;;3.72;1.75;;;;;;;19.87;41.88;101252.97;10171422;28;20093;-66
2022/04/25 13:07:05;;;;;;;3.55;1.70;;;;;;;19.53;41.30;101255.47;10160873;28;20136;-66
2022/04/25 13:12:11;;;;;;;4.32;1.48;;;;;;;19.36;42.79;101249.56;10155277;28;20050;-66
2022/04/25 13:17:08;;;;;;;4.00;1.52;;;;;;;19.09;44.42;101255.72;10159860;28;20464;-66
2022/04/25 13:22:05;;;;;;;3.95;1.88;;;;;;;18.96;49.80;101254.28;10154348;28;20050;-66
2022/04/25 13:27:08;;;;;;;6.28;2.10;;;;;;;18.66;43.13;101259.50;10187099;28;20052;-66
2022/04/25 13:32:05;;;;;;;4.95;2.40;;;;;;;18.25;46.56;101248.63;10193843;28;20124;-66
2022/04/25 13:37:02;;;;;;;5.38;1.70;;;;;;;18.33;45.34;101259.88;10185795;28;20080;-66
2022/04/25 13:42:01;;;;;;;4.55;2.00;;;;;;;18.42;52.67;101263.25;10170957;28;20050;-66
2022/04/25 13:46:58;;;;;;;5.57;2.30;;;;;;;18.61;47.79;101263.34;10184939;28;20061;-67
2022/04/25 13:51:54;;;;;;;3.47;1.40;;;;;;;18.75;48.73;101259.28;10160385;28;20125;-66
2022/04/25 13:56:57;;;;;;;4.50;1.70;;;;;;;18.98;47.39;101268.56;10181039;28;20100;-65
2022/04/25 14:01:54;;;;;;;4.82;1.52;;;;;;;18.90;40.73;101272.34;10153449;28;20050;-66
2022/04/25 14:06:50;;;;;;;3.92;1.77;;;;;;;19.02;42.84;101269.44;10164067;28;20064;-66
2022/04/25 14:11:47;;;;;;;3.63;1.83;;;;;;;19.02;38.36;101263.09;10153700;28;20043;-66
2022/04/25 14:16:43;;;;;;;5.28;1.52;;;;;;;19.45;40.67;101259.28;10154556;28;20112;-66
2022/04/25 14:21:40;;;;;;;3.20;1.50;;;;;;;19.17;45.61;101264.19;10154233;28;20412;-67
2022/04/25 14:26:36;;;;;;;4.82;1.48;;;;;;;19.10;40.65;101265.66;10181504;28;20542;-66
2022/04/25 14:31:34;;;;;;;3.88;1.35;;;;;;;18.89;41.32;101254.91;10183881;28;20120;-66
2022/04/25 14:36:30;;;;;;;4.07;1.33;;;;;;;18.79;41.39;101255.47;10188272;28;20527;-66
2022/04/25 14:41:27;;;;;;;2.85;1.27;;;;;;;18.70;42.30;101255.66;10183727;28;20061;-67
2022/04/25 14:46:24;;;;;;;3.83;1.48;;;;;;;18.25;38.12;101245.84;10187295;28;20470;-67
2022/04/25 14:56:37;;;;;;;2.50;1.23;;;;;;;18.70;40.57;101263.97;10173145;28;20544;-67
2022/04/25 15:01:34;;;;;;;3.35;1.45;;;;;;;18.81;44.22;101266.19;10159869;28;20074;-66
2022/04/25 15:06:30;;;;;;;4.13;1.50;;;;;;;18.94;40.08;101264.91;10164873;28;20050;-66
2022/04/25 15:11:27;;;;;;;4.18;1.20;;;;;;;18.93;39.00;101266.06;10160168;28;20054;-66
2022/04/25 15:16:23;;;;;;;6.05;1.65;;;;;;;18.86;45.22;101271.44;10164250;28;20050;-66
2022/04/25 15:21:20;;;;;;;6.15;1.67;;;;;;;18.89;49.71;101271.53;10158763;28;20531;-67
2022/04/25 15:26:17;;;;;;;5.57;1.45;;;;;;;18.67;40.69;101270.19;10185214;28;20100;-66
2022/04/25 15:31:14;;;;;;;3.05;1.35;;;;;;;18.87;45.39;101273.06;10199795;28;20080;-66
2022/04/25 15:36:10;;;;;;;4.20;1.35;;;;;;;19.07;47.66;101277.47;10185167;28;20132;-66
2022/04/25 15:41:07;;;;;;;3.35;1.40;;;;;;;19.07;39.46;101273.91;10197415;28;20045;-67
2022/04/25 15:46:03;;;;;;;3.60;1.38;;;;;;;19.17;42.12;101280.81;10184267;28;20077;-66
2022/04/25 15:51:00;;;;;;;3.83;1.23;;;;;;;19.18;37.76;101271.38;10197840;28;20085;-66
2022/04/25 16:01:11;;;;;;;3.78;1.60;;;;;;;19.64;43.94;101277.06;10177893;28;20074;-67
2022/04/25 16:06:08;;;;;;;3.22;1.35;;;;;;;19.80;39.29;101275.03;10181331;28;20060;-66
2022/04/25 16:11:05;;;;;;;3.10;1.23;;;;;;;20.18;47.77;101284.44;10159667;28;20492;-66
2022/04/25 16:16:03;;;;;;;4.00;1.55;;;;;;;20.68;42.84;101285.31;10178391;28;20046;-67
2022/04/25 16:20:59;;;;;;;3.25;1.45;;;;;;;21.73;36.49;101281.94;10156822;28;20078;-67
2022/04/25 16:26:02;;;;;;;3.88;1.40;;;;;;;22.16;36.21;101293.50;10166436;28;20439;-67
2022/04/25 16:30:58;;;;;;;2.95;1.40;;;;;;;22.34;32.60;101294.50;10157243;28;20544;-66
2022/04/25 16:35:58;;;;;;;3.33;1.38;;;;;;;22.76;31.68;101287.66;10158297;28;20050;-66
2022/04/25 16:40:55;;;;;;;4.35;1.30;;;;;;;22.54;30.38;101285.94;10156521;28;20120;-66
2022/04/25 16:45:51;;;;;;;2.53;1.13;;;;;;;23.34;33.24;101285.22;10179072;28;20569;-66
2022/04/25 16:50:48;;;;;;;3.50;1.20;;;;;;;23.55;31.40;101282.53;10194402;28;20084;-66
2022/04/25 16:55:44;;;;;;;3.92;1.30;;;;;;;23.70;30.06;101284.19;10176544;28;20477;-66
2022/04/25 17:00:41;;;;;;;5.15;1.33;;;;;;;23.60;30.95;101284.97;10194572;28;20458;-66
2022/04/25 17:05:37;;;;;;;4.63;1.40;;;;;;;23.14;29.87;101279.97;10194418;28;20117;-67
2022/04/25 17:10:34;;;;;;;3.70;1.55;;;;;;;22.47;31.07;101281.09;10180859;28;20069;-67
2022/04/25 17:15:30;;;;;;;5.03;1.50;;;;;;;22.31;30.23;101283.34;10174546;28;20470;-67
2022/04/25 17:20:27;;;;;;;3.60;1.17;;;;;;;21.91;31.04;101282.94;10164924;28;20482;-68
2022/04/25 17:25:23;;;;;;;6.63;1.30;;;;;;;21.17;32.13;101284.41;10173197;28;20108;-67
2022/04/25 17:30:20;;;;;;;3.30;1.10;;;;;;;20.47;32.64;101296.03;10160636;28;20058;-67
2022/04/25 17:35:37;;;;;;;3.42;1.38;;;;;;;19.67;33.15;101298.53;10161083;28;20046;-66
